Time;durP1;ratioP1;P1;durP2;ratioP2;P2;SDS_P1;SDS_P2;PMS_P1;PMS_P2;Temp;Humidity;BMP_temperature;BMP_pressure;BME280_temperature;BME280_humidity;BME280_pressure;Samples;Min_cycle;Max_cycle;Signal;HPM_P1;HPM_P2
2023/07/02 00:00:05;;;;;;;16.55;5.95;;;15.60;99.90;;;;;;5003802;28;20033;-79
2023/07/02 00:02:31;;;;;;;18.13;6.30;;;15.60;99.90;;;;;;5019884;28;20103;-80
2023/07/02 00:04:57;;;;;;;14.65;6.13;;;15.60;99.90;;;;;;5034048;28;20739;-79
2023/07/02 00:07:23;;;;;;;17.00;6.57;;;15.60;99.90;;;;;;5031764;28;20029;-80
2023/07/02 00:09:48;;;;;;;17.33;6.00;;;15.60;99.90;;;;;;5019020;28;20071;-79
2023/07/02 00:12:14;;;;;;;16.70;6.75;;;15.60;99.90;;;;;;5009301;28;20240;-80
2023/07/02 00:14:40;;;;;;;16.30;5.95;;;15.60;99.90;;;;;;5015757;28;20037;-79
2023/07/02 00:17:06;;;;;;;13.38;6.68;;;15.50;99.90;;;;;;5023232;28;20172;-80
2023/07/02 00:19:31;;;;;;;16.17;6.97;;;15.60;99.90;;;;;;5003587;28;20481;-80
2023/07/02 00:21:58;;;;;;;19.50;6.57;;;15.50;99.90;;;;;;5019625;28;20103;-80
2023/07/02 00:24:23;;;;;;;13.50;6.75;;;15.50;99.90;;;;;;5003765;28;20546;-80
2023/07/02 00:26:52;;;;;;;21.42;6.93;;;15.50;99.90;;;;;;5018816;28;20089;-80
2023/07/02 00:29:18;;;;;;;22.10;6.97;;;15.50;99.90;;;;;;5049073;28;20048;-80
2023/07/02 00:31:43;;;;;;;17.02;7.28;;;15.40;99.90;;;;;;5001410;28;20412;-79
2023/07/02 00:34:09;;;;;;;17.15;6.90;;;15.40;99.90;;;;;;5017553;28;20086;-80
2023/07/02 00:36:34;;;;;;;18.73;6.90;;;15.40;99.90;;;;;;5047223;28;20582;-80
2023/07/02 00:39:00;;;;;;;23.88;7.75;;;15.40;99.90;;;;;;5047439;28;20064;-80
2023/07/02 00:41:26;;;;;;;16.75;6.80;;;15.40;99.90;;;;;;5007522;28;20050;-80
2023/07/02 00:43:54;;;;;;;17.05;7.13;;;15.30;99.90;;;;;;5020930;28;20040;-79
2023/07/02 00:46:25;;;;;;;21.25;7.53;;;15.30;99.90;;;;;;5036848;28;20033;-80
2023/07/02 00:48:53;;;;;;;14.57;7.32;;;15.30;99.90;;;;;;5028495;28;20048;-80
2023/07/02 00:51:22;;;;;;;20.90;6.82;;;15.20;99.90;;;;;;5048551;28;20181;-80
2023/07/02 00:53:50;;;;;;;18.25;7.25;;;15.20;99.90;;;;;;5028157;28;20451;-79
2023/07/02 00:56:15;;;;;;;19.45;7.80;;;15.20;99.90;;;;;;5030320;28;20110;-80
2023/07/02 00:58:51;;;;;;;16.67;6.75;;;15.30;99.90;;;;;;5018956;28;20151;-80
2023/07/02 01:01:19;;;;;;;25.25;7.60;;;15.20;99.90;;;;;;5019550;28;20898;-80
2023/07/02 01:04:03;;;;;;;25.05;8.45;;;15.20;99.90;;;;;;5017515;28;20271;-80
2023/07/02 01:06:34;;;;;;;19.23;7.80;;;15.20;99.90;;;;;;5006318;28;20033;-80
2023/07/02 01:09:03;;;;;;;17.42;7.22;;;15.10;99.90;;;;;;5019034;28;20500;-80
2023/07/02 01:11:31;;;;;;;17.90;7.13;;;15.00;99.90;;;;;;5020873;28;20120;-80
2023/07/02 01:14:19;;;;;;;19.55;7.40;;;15.10;99.90;;;;;;5016913;28;20147;-80
2023/07/02 01:16:47;;;;;;;23.02;7.93;;;15.00;99.90;;;;;;5030713;28;20551;-79
2023/07/02 01:19:45;;;;;;;22.65;7.50;;;15.00;99.90;;;;;;5026275;28;20041;-80
2023/07/02 01:22:12;;;;;;;20.77;7.40;;;14.90;99.90;;;;;;5046545;28;20052;-79
2023/07/02 01:24:44;;;;;;;19.88;7.63;;;14.90;99.90;;;;;;5015159;28;20121;-80
2023/07/02 01:27:10;;;;;;;21.85;7.68;;;14.90;99.90;;;;;;5046759;28;20086;-80
2023/07/02 01:29:39;;;;;;;18.83;6.90;;;14.70;99.90;;;;;;5006354;28;20089;-80
2023/07/02 01:32:05;;;;;;;23.83;8.02;;;14.70;99.90;;;;;;5002281;28;20488;-79
2023/07/02 01:34:31;;;;;;;22.58;8.07;;;14.70;99.90;;;;;;5018860;28;20045;-79
2023/07/02 01:36:56;;;;;;;16.58;7.28;;;14.70;99.90;;;;;;5020231;28;20041;-79
2023/07/02 01:39:22;;;;;;;21.15;7.30;;;14.60;99.90;;;;;;5020149;28;20174;-79
2023/07/02 01:41:52;;;;;;;21.00;7.78;;;14.50;99.90;;;;;;5000380;28;20065;-79
2023/07/02 01:44:18;;;;;;;20.13;7.95;;;14.50;99.90;;;;;;5018539;28;20041;-80
2023/07/02 01:46:44;;;;;;;24.25;7.88;;;14.50;99.90;;;;;;5019856;28;20025;-80
2023/07/02 01:49:10;;;;;;;16.90;6.72;;;14.40;99.90;;;;;;5029183;28;20033;-80
2023/07/02 01:51:36;;;;;;;24.65;7.90;;;14.30;99.90;;;;;;5022231;28;20037;-79
2023/07/02 01:54:02;;;;;;;22.33;7.43;;;14.40;99.90;;;;;;5008741;28;20365;-79
2023/07/02 01:56:28;;;;;;;23.40;7.88;;;14.40;99.90;;;;;;5049728;28;20627;-80
2023/07/02 01:58:54;;;;;;;22.60;7.85;;;14.40;99.90;;;;;;5020190;28;20307;-80
2023/07/02 02:01:19;;;;;;;25.95;8.07;;;14.30;99.90;;;;;;5004801;28;20346;-80
2023/07/02 02:03:45;;;;;;;18.98;8.00;;;14.30;99.90;;;;;;5046499;28;20541;-80
2023/07/02 02:06:11;;;;;;;22.35;8.00;;;14.20;99.90;;;;;;5033968;28;20045;-79
2023/07/02 02:08:36;;;;;;;18.67;8.80;;;14.20;99.90;;;;;;5025960;28;20029;-80
2023/07/02 02:11:02;;;;;;;23.23;8.00;;;14.20;99.90;;;;;;5008685;28;20124;-80
2023/07/02 02:13:28;;;;;;;24.73;8.95;;;14.20;99.90;;;;;;5022906;28;20038;-79
2023/07/02 02:15:54;;;;;;;26.00;8.60;;;14.20;99.90;;;;;;5025235;28;20048;-79
2023/07/02 02:18:20;;;;;;;21.02;7.88;;;14.20;99.90;;;;;;5002524;28;20034;-79
2023/07/02 02:20:46;;;;;;;25.60;9.10;;;14.00;99.90;;;;;;5031918;28;20068;-80
2023/07/02 02:23:11;;;;;;;23.88;9.15;;;14.10;99.90;;;;;;5049288;28;20044;-80
2023/07/02 02:25:37;;;;;;;23.88;8.48;;;14.00;99.90;;;;;;5048965;28;20034;-80
2023/07/02 02:28:03;;;;;;;27.17;8.88;;;14.00;99.90;;;;;;5022158;28;20143;-80
2023/07/02 02:30:28;;;;;;;25.90;8.10;;;13.90;99.90;;;;;;5021697;28;20043;-80
2023/07/02 02:32:54;;;;;;;22.02;8.13;;;13.80;99.90;;;;;;5031633;28;20420;-80
2023/07/02 02:35:20;;;;;;;26.95;8.63;;;14.00;99.90;;;;;;5041362;28;20472;-80
2023/07/02 02:37:45;;;;;;;22.45;8.32;;;14.00;99.90;;;;;;5023442;28;20679;-80
2023/07/02 02:40:12;;;;;;;23.63;8.35;;;14.00;99.90;;;;;;5049888;28;20049;-79
2023/07/02 02:42:39;;;;;;;25.85;8.50;;;13.90;99.90;;;;;;5032495;28;20380;-79
2023/07/02 02:45:05;;;;;;;21.45;8.00;;;13.80;99.90;;;;;;5048327;28;20099;-80
2023/07/02 02:47:30;;;;;;;28.33;9.35;;;13.90;99.90;;;;;;5033483;28;20133;-80
2023/07/02 02:49:56;;;;;;;23.30;8.25;;;13.90;99.90;;;;;;5007261;28;20184;-80
2023/07/02 02:52:22;;;;;;;26.25;8.50;;;13.90;99.90;;;;;;5051226;28;20051;-80
2023/07/02 02:54:48;;;;;;;18.63;8.35;;;13.80;99.90;;;;;;5033437;28;20095;-80
2023/07/02 02:57:14;;;;;;;32.00;9.15;;;13.80;99.90;;;;;;5006338;28;20140;-80
2023/07/02 02:59:40;;;;;;;23.40;8.00;;;13.80;99.90;;;;;;5020438;28;20036;-80
2023/07/02 03:02:05;;;;;;;24.60;8.68;;;13.80;99.90;;;;;;5024025;28;20104;-80
2023/07/02 03:04:31;;;;;;;25.40;8.13;;;13.80;99.90;;;;;;5023456;28;20041;-80
2023/07/02 03:06:57;;;;;;;23.02;8.88;;;13.70;99.90;;;;;;5049392;28;20045;-80
2023/07/02 03:09:22;;;;;;;22.90;9.23;;;13.70;99.90;;;;;;5021567;28;20037;-80
2023/07/02 03:11:48;;;;;;;27.60;8.85;;;13.70;99.90;;;;;;5002820;28;20119;-79
2023/07/02 03:14:17;;;;;;;25.88;9.15;;;13.60;99.90;;;;;;5023117;28;20032;-79
2023/07/02 03:16:45;;;;;;;24.70;8.68;;;13.50;99.90;;;;;;5006058;28;20037;-80
2023/07/02 03:19:10;;;;;;;24.67;9.13;;;13.50;99.90;;;;;;5020721;28;20131;-80
2023/07/02 03:21:36;;;;;;;21.15;8.68;;;13.50;99.90;;;;;;5023333;28;20033;-80
2023/07/02 03:24:02;;;;;;;27.90;8.27;;;13.50;99.90;;;;;;5011636;28;20047;-79
2023/07/02 03:26:28;;;;;;;33.05;8.85;;;13.40;99.90;;;;;;5020889;28;20030;-79
2023/07/02 03:28:53;;;;;;;25.10;9.32;;;13.40;99.90;;;;;;5005008;28;20126;-80
2023/07/02 03:31:19;;;;;;;27.20;8.70;;;13.60;99.90;;;;;;5048531;28;20056;-80
2023/07/02 03:33:45;;;;;;;25.80;9.23;;;13.60;99.90;;;;;;5020578;28;20316;-80
2023/07/02 03:36:11;;;;;;;19.63;8.05;;;13.70;99.90;;;;;;5008840;28;20090;-80
2023/07/02 03:38:37;;;;;;;24.33;8.60;;;13.60;99.90;;;;;;5032077;28;20551;-80
2023/07/02 03:41:02;;;;;;;22.38;8.10;;;13.70;99.90;;;;;;5021969;28;20055;-80
2023/07/02 03:43:28;;;;;;;24.38;9.05;;;13.70;99.90;;;;;;5023073;28;20059;-80
2023/07/02 03:45:54;;;;;;;25.00;8.48;;;13.80;99.90;;;;;;5009232;28;20041;-80
2023/07/02 03:48:19;;;;;;;20.80;8.05;;;13.80;99.90;;;;;;5001330;28;20376;-80
2023/07/02 03:50:47;;;;;;;18.27;8.35;;;13.80;99.90;;;;;;5033142;28;20114;-80
2023/07/02 03:53:14;;;;;;;19.75;7.03;;;13.80;99.90;;;;;;5022862;28;20163;-80
2023/07/02 03:55:40;;;;;;;24.77;9.00;;;13.80;99.90;;;;;;5022352;28;20132;-80
2023/07/02 03:58:05;;;;;;;23.80;9.07;;;13.80;99.90;;;;;;5035447;28;20827;-80
2023/07/02 04:00:31;;;;;;;21.63;8.05;;;13.90;99.90;;;;;;5019123;28;20111;-79
2023/07/02 04:02:58;;;;;;;21.95;8.88;;;13.90;99.90;;;;;;5018265;28;20045;-79
2023/07/02 04:05:23;;;;;;;21.45;8.55;;;13.90;99.90;;;;;;5019470;28;20040;-80
2023/07/02 04:07:49;;;;;;;23.52;8.60;;;14.00;99.90;;;;;;5007328;28;20037;-80
2023/07/02 04:10:15;;;;;;;27.90;8.88;;;14.00;99.90;;;;;;5019736;28;20044;-80
2023/07/02 04:12:40;;;;;;;22.58;7.75;;;14.00;99.90;;;;;;5003563;28;20045;-80
2023/07/02 04:15:09;;;;;;;19.42;7.95;;;14.00;99.90;;;;;;5031693;28;20040;-80
2023/07/02 04:17:35;;;;;;;27.67;8.30;;;14.00;99.90;;;;;;4996065;28;20044;-80
2023/07/02 04:20:03;;;;;;;21.98;7.35;;;14.00;99.90;;;;;;5018880;28;20041;-80
2023/07/02 04:22:29;;;;;;;18.77;7.50;;;14.00;99.90;;;;;;5020034;28;20052;-80
2023/07/02 04:24:56;;;;;;;20.10;7.47;;;14.10;99.90;;;;;;5019515;28;20042;-79
2023/07/02 04:27:22;;;;;;;22.73;8.88;;;14.10;99.90;;;;;;5020073;28;20394;-80
2023/07/02 04:29:47;;;;;;;21.00;8.20;;;14.20;99.90;;;;;;5016654;28;20055;-79
2023/07/02 04:32:13;;;;;;;26.58;8.45;;;14.20;99.90;;;;;;5021718;28;20406;-79
2023/07/02 04:34:38;;;;;;;18.45;7.85;;;14.20;99.90;;;;;;5031508;28;20276;-79
2023/07/02 04:37:05;;;;;;;25.70;8.07;;;14.20;99.90;;;;;;5034925;28;20759;-79
2023/07/02 04:39:31;;;;;;;22.20;8.13;;;14.10;99.90;;;;;;5047576;28;20066;-79
2023/07/02 04:41:56;;;;;;;22.85;8.35;;;14.10;99.90;;;;;;5023196;28;20596;-79
2023/07/02 04:44:28;;;;;;;28.30;8.50;;;14.10;99.90;;;;;;5019256;28;20442;-80
2023/07/02 04:46:58;;;;;;;25.63;8.70;;;14.00;99.90;;;;;;5046550;28;20076;-80
2023/07/02 04:49:24;;;;;;;23.13;8.13;;;14.10;99.90;;;;;;5017223;28;20502;-79
2023/07/02 04:51:50;;;;;;;24.52;7.80;;;14.20;99.90;;;;;;5031325;28;20049;-80
2023/07/02 04:54:25;;;;;;;22.77;7.97;;;14.30;99.90;;;;;;5019368;28;20037;-80
2023/07/02 04:56:50;;;;;;;28.17;8.90;;;14.50;99.90;;;;;;5019753;28;20531;-79
2023/07/02 04:59:16;;;;;;;20.40;8.02;;;14.60;99.90;;;;;;5017976;28;20352;-80
2023/07/02 05:01:44;;;;;;;21.00;7.15;;;14.60;99.90;;;;;;5021026;28;20474;-80
2023/07/02 05:04:13;;;;;;;21.55;7.68;;;14.70;99.90;;;;;;5045626;28;20088;-77
2023/07/02 05:06:38;;;;;;;16.92;6.90;;;14.80;99.90;;;;;;5003895;28;20029;-80
2023/07/02 05:09:04;;;;;;;17.98;6.80;;;15.00;99.90;;;;;;5018031;28;20044;-80
2023/07/02 05:11:30;;;;;;;18.20;7.07;;;15.10;99.90;;;;;;5035207;28;20408;-80
2023/07/02 05:13:56;;;;;;;24.08;6.68;;;15.30;99.90;;;;;;5038634;28;20053;-80
2023/07/02 05:16:21;;;;;;;17.45;6.80;;;15.40;99.90;;;;;;5007150;28;20453;-80
2023/07/02 05:18:47;;;;;;;17.80;6.90;;;15.50;99.90;;;;;;5045799;28;20421;-80
2023/07/02 05:21:17;;;;;;;19.00;6.57;;;15.50;99.90;;;;;;5031744;28;20038;-80
2023/07/02 05:23:43;;;;;;;16.52;6.43;;;15.50;99.90;;;;;;5024557;28;20025;-80
2023/07/02 05:26:09;;;;;;;18.88;6.43;;;15.60;99.90;;;;;;5025507;28;20030;-80
2023/07/02 05:28:34;;;;;;;13.50;6.38;;;15.70;99.90;;;;;;5023020;28;20041;-80
2023/07/02 05:31:00;;;;;;;22.63;6.32;;;15.80;99.90;;;;;;5020886;28;20330;-80
2023/07/02 05:33:26;;;;;;;16.05;5.93;;;15.70;99.90;;;;;;5022186;28;20052;-80
2023/07/02 05:35:51;;;;;;;19.00;5.93;;;15.70;99.90;;;;;;5024001;28;20036;-80
2023/07/02 05:38:18;;;;;;;21.02;5.95;;;15.90;99.90;;;;;;5011981;28;20515;-80
2023/07/02 05:40:45;;;;;;;17.92;5.85;;;16.00;99.90;;;;;;5007224;28;20119;-80
2023/07/02 05:43:11;;;;;;;13.50;5.75;;;16.10;99.90;;;;;;5020033;28;20048;-80
2023/07/02 05:45:37;;;;;;;17.13;5.55;;;16.20;99.90;;;;;;5022745;28;20033;-80
2023/07/02 05:48:02;;;;;;;18.45;6.25;;;16.30;99.90;;;;;;5005782;28;20033;-80
2023/07/02 05:50:28;;;;;;;16.55;5.88;;;16.40;99.90;;;;;;5050131;28;20160;-80
2023/07/02 05:52:54;;;;;;;19.55;6.47;;;16.40;99.90;;;;;;5007207;28;20391;-80
2023/07/02 05:55:19;;;;;;;19.05;6.25;;;16.30;99.90;;;;;;5023553;28;20480;-80
2023/07/02 05:57:46;;;;;;;13.50;5.90;;;16.20;99.90;;;;;;5022168;28;20340;-80
2023/07/02 06:00:12;;;;;;;20.13;6.38;;;16.20;99.90;;;;;;5024083;28;20071;-80
2023/07/02 06:02:38;;;;;;;16.88;6.13;;;16.10;99.90;;;;;;5021095;28;20033;-80
2023/07/02 06:05:04;;;;;;;12.68;5.20;;;16.00;99.90;;;;;;5035204;28;20091;-80
2023/07/02 06:07:30;;;;;;;17.48;5.60;;;15.90;99.90;;;;;;5025583;28;20052;-80
2023/07/02 06:09:55;;;;;;;16.00;5.45;;;15.90;99.90;;;;;;5009492;28;20041;-80
2023/07/02 06:12:22;;;;;;;13.52;5.78;;;15.90;99.90;;;;;;5025300;28;20697;-80
2023/07/02 06:14:48;;;;;;;15.43;5.55;;;15.80;99.90;;;;;;5048510;28;20083;-80
2023/07/02 06:17:15;;;;;;;17.75;6.13;;;15.80;99.90;;;;;;5003625;28;20135;-80
2023/07/02 06:19:49;;;;;;;18.80;5.63;;;15.90;99.90;;;;;;5002590;28;20122;-80
2023/07/02 06:22:15;;;;;;;14.88;5.72;;;16.20;99.90;;;;;;5007329;28;20037;-79
2023/07/02 06:24:40;;;;;;;16.13;5.50;;;16.30;99.90;;;;;;5021998;28;20275;-80
2023/07/02 06:27:06;;;;;;;14.32;5.97;;;16.50;99.90;;;;;;5027043;28;20532;-80
2023/07/02 06:29:32;;;;;;;14.73;5.57;;;16.60;99.90;;;;;;5049184;28;20444;-80
2023/07/02 06:31:57;;;;;;;15.73;5.07;;;16.70;99.90;;;;;;5034316;28;20049;-80
2023/07/02 06:34:23;;;;;;;17.45;5.30;;;16.80;99.90;;;;;;5002784;28;20077;-80
2023/07/02 06:36:48;;;;;;;12.27;5.10;;;16.90;99.90;;;;;;5048302;28;20073;-80
2023/07/02 06:39:14;;;;;;;12.88;5.20;;;16.90;99.90;;;;;;5033449;28;20041;-80
2023/07/02 06:41:40;;;;;;;24.08;5.80;;;17.20;99.90;;;;;;5022224;28;20057;-79
2023/07/02 06:44:06;;;;;;;13.55;5.78;;;17.40;99.90;;;;;;5049087;28;20421;-80
2023/07/02 06:46:32;;;;;;;11.10;4.53;;;17.00;99.90;;;;;;5018356;28;20041;-79
2023/07/02 06:48:58;;;;;;;19.98;5.78;;;16.70;99.90;;;;;;5032044;28;20103;-80
2023/07/02 06:51:25;;;;;;;17.20;6.35;;;16.90;99.90;;;;;;5005882;28;20423;-79
2023/07/02 06:53:51;;;;;;;14.38;5.55;;;17.20;99.90;;;;;;5022305;28;20467;-80
2023/07/02 06:56:17;;;;;;;14.32;4.78;;;17.30;99.90;;;;;;5005950;28;20513;-80
2023/07/02 06:58:43;;;;;;;15.38;4.80;;;17.20;99.90;;;;;;5024130;28;20052;-80
2023/07/02 07:01:09;;;;;;;15.65;4.82;;;17.10;99.90;;;;;;5033865;28;20190;-80
2023/07/02 07:03:35;;;;;;;21.75;4.60;;;17.40;99.90;;;;;;5023323;28;20129;-79
2023/07/02 07:06:03;;;;;;;12.80;4.03;;;17.30;99.90;;;;;;5049259;28;20037;-79
2023/07/02 07:08:29;;;;;;;16.92;4.57;;;16.90;99.90;;;;;;5005968;28;20037;-79
2023/07/02 07:10:55;;;;;;;11.05;3.65;;;16.80;99.90;;;;;;5032943;28;20060;-80
2023/07/02 07:13:21;;;;;;;9.70;3.50;;;16.50;99.90;;;;;;5022479;28;20034;-80
2023/07/02 07:15:47;;;;;;;15.10;4.47;;;16.80;99.90;;;;;;5022841;28;20484;-80
2023/07/02 07:18:13;;;;;;;10.48;3.95;;;17.20;99.90;;;;;;5000886;28;20590;-79
2023/07/02 07:20:42;;;;;;;15.07;3.60;;;17.50;99.90;;;;;;5020380;28;20148;-79
2023/07/02 07:23:08;;;;;;;11.73;3.58;;;17.80;99.90;;;;;;5007947;28;20071;-79
2023/07/02 07:25:33;;;;;;;14.38;3.80;;;17.60;99.90;;;;;;5018393;28;20033;-79
2023/07/02 07:28:00;;;;;;;9.35;2.92;;;17.50;99.90;;;;;;5004735;28;20322;-80
2023/07/02 07:30:26;;;;;;;10.10;3.17;;;17.60;99.90;;;;;;5029794;28;20448;-80
2023/07/02 07:32:52;;;;;;;10.60;3.15;;;17.60;99.90;;;;;;5016225;28;20033;-80
2023/07/02 07:35:20;;;;;;;14.00;3.80;;;17.70;99.90;;;;;;5008706;28;20106;-80
2023/07/02 07:37:46;;;;;;;8.15;3.05;;;17.70;99.90;;;;;;5022227;28;20148;-80
2023/07/02 07:40:12;;;;;;;12.20;2.95;;;17.30;99.90;;;;;;5021985;28;20252;-80
2023/07/02 07:42:38;;;;;;;9.30;3.30;;;17.20;99.90;;;;;;5021118;28;20041;-80
2023/07/02 07:45:04;;;;;;;8.57;2.60;;;17.40;99.90;;;;;;5048454;28;20044;-80
2023/07/02 07:47:30;;;;;;;10.55;2.97;;;17.70;99.90;;;;;;5004161;28;20067;-80
2023/07/02 07:49:55;;;;;;;7.05;2.30;;;17.90;99.90;;;;;;5020258;28;20099;-80
2023/07/02 07:52:21;;;;;;;10.88;3.28;;;17.90;20.10;;;;;;5017437;28;20034;-80
2023/07/02 07:54:50;;;;;;;16.75;3.75;;;17.90;99.90;;;;;;5005069;28;20056;-80
2023/07/02 07:57:18;;;;;;;13.80;3.17;;;17.70;99.90;;;;;;5007721;28;20037;-80
2023/07/02 07:59:44;;;;;;;11.43;2.53;;;17.80;1.00;;;;;;5021087;28;20508;-80
2023/07/02 08:02:09;;;;;;;10.38;3.28;;;17.80;99.90;;;;;;5032260;28;20164;-79
2023/07/02 08:04:35;;;;;;;9.82;3.50;;;17.80;99.90;;;;;;5022144;28;20487;-80
2023/07/02 08:07:04;;;;;;;8.13;2.60;;;17.70;99.90;;;;;;5029020;28;20093;-80
2023/07/02 08:09:30;;;;;;;8.63;2.97;;;18.10;99.90;;;;;;5030414;28;20037;-80
2023/07/02 08:11:56;;;;;;;7.97;3.03;;;18.10;99.90;;;;;;5005542;28;20037;-80
2023/07/02 08:14:21;;;;;;;8.70;2.70;;;18.20;2.20;;;;;;5045659;28;20481;-79
2023/07/02 08:16:47;;;;;;;7.72;2.85;;;18.70;99.90;;;;;;5007276;28;20298;-79
2023/07/02 08:19:13;;;;;;;6.45;2.35;;;18.80;1.00;;;;;;5044039;28;20443;-79
2023/07/02 08:21:38;;;;;;;6.63;2.65;;;18.50;99.90;;;;;;5020272;28;20114;-80
2023/07/02 08:24:05;;;;;;;10.75;2.80;;;18.10;99.90;;;;;;5002246;28;20059;-80
2023/07/02 08:26:31;;;;;;;11.57;3.25;;;18.00;99.90;;;;;;5009227;28;20444;-80
2023/07/02 08:28:57;;;;;;;8.65;3.33;;;18.10;99.90;;;;;;5028105;28;20037;-80
2023/07/02 08:31:23;;;;;;;13.60;3.20;;;18.10;99.90;;;;;;5001774;28;20043;-80
2023/07/02 08:33:48;;;;;;;8.63;3.17;;;18.20;99.90;;;;;;5017974;28;20037;-80
2023/07/02 08:36:14;;;;;;;12.10;3.50;;;18.50;99.90;;;;;;5046468;28;20409;-80
2023/07/02 08:38:41;;;;;;;12.70;2.97;;;18.20;1.00;;;;;;5046848;28;20107;-79
2023/07/02 08:41:07;;;;;;;8.75;3.90;;;17.80;99.90;;;;;;5046759;28;20088;-80
2023/07/02 08:43:35;;;;;;;10.43;3.33;;;17.50;99.90;;;;;;5019425;28;20034;-79
2023/07/02 08:46:01;;;;;;;8.18;3.25;;;17.30;99.90;;;;;;5019987;28;20053;-80
2023/07/02 08:48:29;;;;;;;11.98;3.40;;;17.30;99.90;;;;;;5047364;28;20029;-80
2023/07/02 08:50:55;;;;;;;11.25;3.80;;;17.80;99.90;;;;;;5015242;28;20080;-80
2023/07/02 08:53:25;;;;;;;12.90;3.42;;;18.00;99.90;;;;;;5020337;28;20049;-80
2023/07/02 08:55:51;;;;;;;9.07;3.55;;;17.70;99.90;;;;;;5020691;28;20041;-81
2023/07/02 08:58:16;;;;;;;8.88;3.72;;;17.60;99.90;;;;;;5025352;28;20037;-79
2023/07/02 09:01:09;;;;;;;11.48;3.80;;;17.40;99.90;;;;;;5025382;28;20037;-80
2023/07/02 09:03:37;;;;;;;8.85;3.50;;;17.10;99.90;;;;;;5023864;28;20040;-79
2023/07/02 09:06:07;;;;;;;8.50;3.17;;;17.20;99.90;;;;;;5050015;28;20222;-80
2023/07/02 09:08:36;;;;;;;8.05;3.05;;;17.30;99.90;;;;;;5007570;28;20035;-80
2023/07/02 09:11:10;;;;;;;8.50;3.50;;;17.90;99.90;;;;;;5026743;28;20230;-80
2023/07/02 09:13:49;;;;;;;6.88;2.90;;;17.60;99.90;;;;;;5049849;28;20049;-79
2023/07/02 09:16:39;;;;;;;13.32;3.65;;;17.50;99.90;;;;;;5051376;28;20427;-80
2023/07/02 09:19:07;;;;;;;8.88;3.50;;;17.40;99.90;;;;;;5003568;28;20069;-80
2023/07/02 09:21:48;;;;;;;10.15;3.35;;;17.30;99.90;;;;;;5006447;28;20618;-80
2023/07/02 09:24:19;;;;;;;7.40;2.97;;;17.10;99.90;;;;;;5026015;28;20094;-80
2023/07/02 09:26:51;;;;;;;15.85;3.22;;;17.00;99.90;;;;;;5022730;28;20040;-80
2023/07/02 09:29:21;;;;;;;8.40;3.00;;;17.10;99.90;;;;;;5022827;28;20037;-79
2023/07/02 09:31:48;;;;;;;8.43;3.45;;;17.40;99.90;;;;;;5004656;28;20429;-80
2023/07/02 09:34:14;;;;;;;14.98;3.95;;;18.20;99.90;;;;;;5011985;28;20529;-80
2023/07/02 09:36:41;;;;;;;11.57;3.53;;;18.10;99.90;;;;;;5009471;28;20045;-80
2023/07/02 09:39:14;;;;;;;10.18;3.67;;;18.00;99.90;;;;;;5027149;28;20040;-80
2023/07/02 09:41:44;;;;;;;10.57;3.40;;;18.20;99.90;;;;;;5021879;28;20433;-80
2023/07/02 09:44:11;;;;;;;14.63;3.78;;;18.10;99.90;;;;;;5034004;28;20287;-80
2023/07/02 09:46:43;;;;;;;8.00;3.28;;;18.20;99.90;;;;;;5008528;28;20053;-80
2023/07/02 09:49:13;;;;;;;8.93;3.35;;;18.20;99.90;;;;;;5022767;28;20610;-80
2023/07/02 09:51:40;;;;;;;11.48;3.08;;;18.20;99.90;;;;;;5011504;28;20124;-80
2023/07/02 09:54:06;;;;;;;7.47;3.03;;;18.10;99.90;;;;;;5050505;28;20103;-80
2023/07/02 09:56:31;;;;;;;13.90;3.50;;;18.50;99.90;;;;;;5023999;28;20132;-80
2023/07/02 09:58:57;;;;;;;7.28;2.63;;;18.70;99.90;;;;;;5022120;28;20256;-79
2023/07/02 10:01:23;;;;;;;9.48;3.30;;;18.20;1.00;;;;;;5025139;28;22436;-80
2023/07/02 10:03:48;;;;;;;9.38;3.00;;;18.30;99.90;;;;;;5021376;28;20033;-80
2023/07/02 10:06:14;;;;;;;10.15;3.10;;;18.20;99.90;;;;;;5024838;28;20253;-80
2023/07/02 10:08:39;;;;;;;8.77;3.15;;;18.00;99.90;;;;;;5021611;28;20065;-80
2023/07/02 10:11:09;;;;;;;11.73;3.63;;;18.10;99.90;;;;;;5033428;28;20147;-80
2023/07/02 10:13:35;;;;;;;9.18;3.08;;;17.90;99.90;;;;;;5034005;28;20072;-80
2023/07/02 10:16:02;;;;;;;11.38;3.17;;;17.90;99.90;;;;;;5022830;28;20147;-80
2023/07/02 10:18:28;;;;;;;11.27;3.60;;;18.60;99.90;;;;;;5024002;28;20045;-80
2023/07/02 10:20:54;;;;;;;9.15;3.00;;;18.50;99.90;;;;;;5020329;28;20134;-80
2023/07/02 10:23:20;;;;;;;8.65;2.60;;;19.00;99.90;;;;;;5024641;28;20385;-80
2023/07/02 10:25:45;;;;;;;7.65;3.15;;;18.40;99.90;;;;;;5025905;28;20041;-80
2023/07/02 10:28:22;;;;;;;7.97;2.15;;;18.20;1.00;;;;;;5027618;28;20041;-80
2023/07/02 10:30:48;;;;;;;11.13;3.20;;;18.10;99.90;;;;;;5031643;28;20033;-79
2023/07/02 10:33:18;;;;;;;8.52;2.85;;;18.80;1.00;;;;;;5021366;28;20135;-79
2023/07/02 10:35:47;;;;;;;6.15;2.92;;;19.20;99.90;;;;;;5032490;28;20041;-80
2023/07/02 10:38:25;;;;;;;11.43;3.50;;;19.30;99.90;;;;;;5005653;28;20412;-79
2023/07/02 10:41:00;;;;;;;8.35;2.75;;;19.70;99.90;;;;;;5032834;28;20050;-80
2023/07/02 10:43:31;;;;;;;7.00;2.60;;;19.40;99.90;;;;;;5047538;28;20042;-79
2023/07/02 10:45:59;;;;;;;6.85;2.60;;;19.20;99.90;;;;;;5035032;28;20071;-79
2023/07/02 10:48:25;;;;;;;7.28;2.65;;;18.80;99.90;;;;;;5017172;28;20098;-79
2023/07/02 10:50:51;;;;;;;8.70;2.95;;;18.60;29.40;;;;;;5034134;28;20041;-80
2023/07/02 10:53:18;;;;;;;9.82;3.05;;;18.80;99.90;;;;;;5032808;28;20410;-80
2023/07/02 10:55:44;;;;;;;7.13;2.78;;;18.90;99.90;;;;;;5024255;28;20427;-80
2023/07/02 10:58:11;;;;;;;7.78;2.60;;;18.90;99.90;;;;;;5021701;28;20116;-80
2023/07/02 11:00:48;;;;;;;6.88;2.80;;;18.80;99.90;;;;;;5017466;28;20041;-79
2023/07/02 11:03:25;;;;;;;10.18;3.00;;;18.60;99.90;;;;;;5032131;28;20056;-79
2023/07/02 11:05:51;;;;;;;10.02;3.10;;;18.50;99.90;;;;;;5022494;28;20429;-80
2023/07/02 11:08:18;;;;;;;11.98;3.22;;;18.80;99.90;;;;;;5022717;28;20402;-79
2023/07/02 11:10:43;;;;;;;8.27;2.88;;;19.50;19.00;;;;;;5007780;28;20400;-79
2023/07/02 11:13:17;;;;;;;7.28;3.00;;;19.30;99.90;;;;;;5020712;28;20248;-79
2023/07/02 11:15:45;;;;;;;8.80;2.90;;;18.80;99.90;;;;;;5050693;28;20304;-79
2023/07/02 11:18:20;;;;;;;10.07;3.30;;;18.60;1.00;;;;;;5047797;28;20494;-79
2023/07/02 11:20:47;;;;;;;7.75;2.80;;;18.60;99.90;;;;;;5003736;28;20141;-79
2023/07/02 11:23:26;;;;;;;6.80;2.80;;;18.30;99.90;;;;;;5030239;28;20133;-79
2023/07/02 11:26:03;;;;;;;8.75;3.20;;;18.60;99.90;;;;;;5025554;28;20040;-79
2023/07/02 11:28:31;;;;;;;10.20;2.67;;;18.60;1.00;;;;;;5020545;28;20033;-79
2023/07/02 11:30:58;;;;;;;8.52;2.38;;;18.30;99.90;;;;;;5003614;28;20079;-79
2023/07/02 11:33:37;;;;;;;6.88;2.75;;;18.10;99.90;;;;;;5002432;28;20052;-79
2023/07/02 11:36:04;;;;;;;11.15;3.15;;;18.10;99.90;;;;;;5002689;28;20045;-79
2023/07/02 11:38:30;;;;;;;10.10;2.60;;;18.20;1.00;;;;;;5023298;28;20331;-79
2023/07/02 11:40:56;;;;;;;7.85;2.83;;;18.30;1.00;;;;;;5047410;28;20057;-80
2023/07/02 11:43:21;;;;;;;9.02;2.88;;;18.10;99.90;;;;;;5029164;28;20044;-80
2023/07/02 11:45:47;;;;;;;7.28;2.70;;;18.20;99.90;;;;;;5020886;28;20260;-80
2023/07/02 11:48:13;;;;;;;13.13;3.25;;;18.10;99.90;;;;;;5023610;28;20489;-80
2023/07/02 11:50:39;;;;;;;9.65;2.75;;;18.40;69.40;;;;;;5019342;28;20340;-81
2023/07/02 11:53:04;;;;;;;6.68;2.75;;;18.10;99.90;;;;;;5032300;28;20080;-81
2023/07/02 11:55:32;;;;;;;7.90;3.03;;;18.40;99.90;;;;;;5023200;28;20637;-80
2023/07/02 11:57:58;;;;;;;6.72;2.50;;;18.90;1.00;;;;;;5002849;28;20664;-81
2023/07/02 12:00:23;;;;;;;7.03;2.85;;;19.20;99.90;;;;;;5005750;28;20048;-81
2023/07/02 12:02:49;;;;;;;7.50;2.60;;;18.90;99.90;;;;;;5048984;28;20049;-81
2023/07/02 12:05:15;;;;;;;5.32;2.00;;;18.60;99.90;;;;;;5030509;28;20068;-80
2023/07/02 12:07:40;;;;;;;6.93;2.20;;;18.40;99.90;;;;;;5047400;28;20281;-80
2023/07/02 12:10:07;;;;;;;9.10;2.45;;;18.10;1.00;;;;;;5002806;28;20040;-80
2023/07/02 12:12:33;;;;;;;5.18;2.20;;;18.10;99.90;;;;;;5019013;28;20063;-80
2023/07/02 12:14:59;;;;;;;6.40;2.47;;;18.20;1.00;;;;;;5021903;28;20504;-80
2023/07/02 12:17:25;;;;;;;9.73;3.03;;;18.60;1.00;;;;;;5004820;28;20314;-79
2023/07/02 12:19:51;;;;;;;14.48;3.25;;;19.00;1.00;;;;;;5015637;28;20583;-80
2023/07/02 12:22:17;;;;;;;6.05;2.30;;;18.60;99.90;;;;;;5030349;28;20144;-80
2023/07/02 12:24:43;;;;;;;8.20;2.60;;;18.60;99.90;;;;;;5020149;28;20040;-80
2023/07/02 12:27:09;;;;;;;9.40;3.08;;;18.60;99.90;;;;;;5023605;28;20022;-80
2023/07/02 12:29:36;;;;;;;10.02;2.45;;;18.80;99.90;;;;;;5029917;28;20800;-80
2023/07/02 12:32:01;;;;;;;7.95;2.33;;;18.50;99.90;;;;;;5021652;28;20118;-80
2023/07/02 12:34:29;;;;;;;6.63;2.78;;;18.40;1.00;;;;;;5029077;28;20080;-80
2023/07/02 12:36:55;;;;;;;7.82;2.40;;;18.30;99.90;;;;;;5020115;28;20059;-80
2023/07/02 12:39:20;;;;;;;4.75;1.95;;;18.50;99.90;;;;;;5018105;28;20033;-80